Sentmenat, Spain
Current Conditions -  °F | °C
As of 1:30 PM on Sunday 21 Dec 2014 (Local Time) from LELL Reporting Station
Clear Clear  
Wind Chill: 57°   Ceiling: Unl
Heat Index: 57°   Visibility: 6mi
Dew Point: 43°   Wind: 8mph
Humidity: 59%   Direction: 270°W
Pressure: 30.42"   Gusts: NA
Location:  41.61°N, 2.14°E
Report Text: LELL 211230Z 27007KT 220V320 CAVOK 14/06 Q1030
Loading
Personal Weather Stations






























Interactive Weather Map New forecast layout! Learn more

10-Day Weather Forecast

Advertisements
Track Severe Weather on mobile